Edmonton Namao Alta., Canada
Current Conditions -  °F | °C
As of 10:00 PM on Tuesday 21 Oct 2014 (Local Time) from CYXD Reporting Station
Clear Clear  
Wind Chill: 39°   Ceiling: Unl
Heat Index: 39°   Visibility: 9mi
Dew Point: 34°   Wind: 3mph
Humidity: 81%   Direction: 200°SSW
Pressure: 29.69"   Gusts: NA
Location:  53.61°N, 113.46°W
Report Text: CYXD 220400Z AUTO 20003KT 9SM CLR 04/01 A2969 RMK SLP070
Loading
Personal Weather Stations






























Interactive Weather Map
Tropical Storm Tracking
New forecast layout! Learn more

10-Day Weather Forecast

Advertisements
Track Severe Weather on mobile